sensor_id;sensor_type;location;lat;lon;timestamp;pressure;altitude;pressure_sealevel;temperature;humidity
3434;BME280;1730;41.932;25.548;2023-07-30T00:01:40;98817.47;;;21.54;100.00
3434;BME280;1730;41.932;25.548;2023-07-30T00:04:05;98816.38;;;21.55;100.00
3434;BME280;1730;41.932;25.548;2023-07-30T00:06:31;98811.72;;;21.44;100.00
3434;BME280;1730;41.932;25.548;2023-07-30T00:08:56;98810.28;;;21.41;100.00
3434;BME280;1730;41.932;25.548;2023-07-30T00:11:22;98818.13;;;21.15;100.00
3434;BME280;1730;41.932;25.548;2023-07-30T00:13:47;98840.78;;;20.92;100.00
3434;BME280;1730;41.932;25.548;2023-07-30T00:16:13;98822.78;;;20.96;100.00
3434;BME280;1730;41.932;25.548;2023-07-30T00:18:38;98847.72;;;20.76;100.00
3434;BME280;1730;41.932;25.548;2023-07-30T00:21:04;98831.91;;;20.78;100.00
3434;BME280;1730;41.932;25.548;2023-07-30T00:23:29;98834.28;;;20.75;100.00
3434;BME280;1730;41.932;25.548;2023-07-30T00:25:55;98814.22;;;20.44;100.00
3434;BME280;1730;41.932;25.548;2023-07-30T00:28:20;98833.78;;;20.48;100.00
3434;BME280;1730;41.932;25.548;2023-07-30T00:30:46;98833.59;;;20.24;100.00
3434;BME280;1730;41.932;25.548;2023-07-30T00:33:12;98839.28;;;20.23;100.00
3434;BME280;1730;41.932;25.548;2023-07-30T00:35:37;98838.47;;;20.22;100.00
3434;BME280;1730;41.932;25.548;2023-07-30T00:38:03;98805.19;;;19.64;100.00
3434;BME280;1730;41.932;25.548;2023-07-30T00:40:28;98859.63;;;19.72;100.00
3434;BME280;1730;41.932;25.548;2023-07-30T00:42:54;98858.59;;;19.92;100.00
3434;BME280;1730;41.932;25.548;2023-07-30T00:45:19;98864.44;;;19.95;100.00
3434;BME280;1730;41.932;25.548;2023-07-30T00:47:45;98818.94;;;19.76;100.00
3434;BME280;1730;41.932;25.548;2023-07-30T00:50:12;98862.31;;;19.97;100.00
3434;BME280;1730;41.932;25.548;2023-07-30T00:52:39;98856.69;;;20.10;100.00
3434;BME280;1730;41.932;25.548;2023-07-30T00:55:06;98863.22;;;20.34;100.00
3434;BME280;1730;41.932;25.548;2023-07-30T00:57:32;98858.75;;;20.40;100.00
3434;BME280;1730;41.932;25.548;2023-07-30T00:59:59;98856.28;;;20.50;100.00
3434;BME280;1730;41.932;25.548;2023-07-30T01:02:29;98832.41;;;20.57;100.00
3434;BME280;1730;41.932;25.548;2023-07-30T01:04:54;98854.38;;;20.68;100.00
3434;BME280;1730;41.932;25.548;2023-07-30T01:07:21;98846.25;;;20.44;100.00
3434;BME280;1730;41.932;25.548;2023-07-30T01:09:46;98856.44;;;20.37;100.00
3434;BME280;1730;41.932;25.548;2023-07-30T01:12:13;98852.41;;;20.39;100.00
3434;BME280;1730;41.932;25.548;2023-07-30T01:14:39;98840.81;;;20.01;100.00
3434;BME280;1730;41.932;25.548;2023-07-30T01:17:05;98867.75;;;20.04;100.00
3434;BME280;1730;41.932;25.548;2023-07-30T01:19:32;98863.00;;;20.11;100.00
3434;BME280;1730;41.932;25.548;2023-07-30T01:21:58;98858.59;;;20.10;100.00
3434;BME280;1730;41.932;25.548;2023-07-30T01:24:23;98871.28;;;19.86;100.00
3434;BME280;1730;41.932;25.548;2023-07-30T01:29:27;98863.22;;;19.91;100.00
3434;BME280;1730;41.932;25.548;2023-07-30T01:32:02;98872.41;;;19.54;100.00
3434;BME280;1730;41.932;25.548;2023-07-30T01:34:31;98870.12;;;19.51;100.00
3434;BME280;1730;41.932;25.548;2023-07-30T01:36:59;98880.47;;;19.42;100.00
3434;BME280;1730;41.932;25.548;2023-07-30T01:39:26;98881.66;;;19.21;100.00
3434;BME280;1730;41.932;25.548;2023-07-30T01:41:55;98856.69;;;18.80;100.00
3434;BME280;1730;41.932;25.548;2023-07-30T01:44:21;98739.75;;;18.13;100.00
3434;BME280;1730;41.932;25.548;2023-07-30T01:46:46;98901.19;;;19.25;100.00
3434;BME280;1730;41.932;25.548;2023-07-30T01:49:12;98902.63;;;19.27;100.00
3434;BME280;1730;41.932;25.548;2023-07-30T01:51:37;98897.13;;;19.34;100.00
3434;BME280;1730;41.932;25.548;2023-07-30T01:54:03;98884.03;;;19.43;100.00
3434;BME280;1730;41.932;25.548;2023-07-30T01:56:28;98889.91;;;19.40;100.00
3434;BME280;1730;41.932;25.548;2023-07-30T01:58:54;98885.50;;;19.45;100.00
3434;BME280;1730;41.932;25.548;2023-07-30T02:01:20;98878.97;;;19.46;100.00
3434;BME280;1730;41.932;25.548;2023-07-30T02:03:45;98889.72;;;19.41;100.00
3434;BME280;1730;41.932;25.548;2023-07-30T02:06:12;98886.78;;;19.36;100.00
3434;BME280;1730;41.932;25.548;2023-07-30T02:08:38;98899.41;;;19.37;100.00
3434;BME280;1730;41.932;25.548;2023-07-30T02:11:03;98874.34;;;19.15;100.00
3434;BME280;1730;41.932;25.548;2023-07-30T02:13:29;98796.50;;;18.55;100.00
3434;BME280;1730;41.932;25.548;2023-07-30T02:15:54;98912.47;;;19.35;100.00
3434;BME280;1730;41.932;25.548;2023-07-30T02:18:20;98908.50;;;19.00;100.00
3434;BME280;1730;41.932;25.548;2023-07-30T02:20:46;98916.47;;;19.01;100.00
3434;BME280;1730;41.932;25.548;2023-07-30T02:23:14;98907.78;;;18.73;100.00
3434;BME280;1730;41.932;25.548;2023-07-30T02:25:41;98919.63;;;18.98;100.00
3434;BME280;1730;41.932;25.548;2023-07-30T02:28:07;98924.78;;;18.81;100.00
3434;BME280;1730;41.932;25.548;2023-07-30T02:30:33;98890.81;;;18.44;100.00
3434;BME280;1730;41.932;25.548;2023-07-30T02:32:59;98943.91;;;18.75;100.00
3434;BME280;1730;41.932;25.548;2023-07-30T02:35:25;98952.19;;;18.55;100.00
3434;BME280;1730;41.932;25.548;2023-07-30T02:37:50;98956.56;;;18.43;100.00
3434;BME280;1730;41.932;25.548;2023-07-30T02:40:16;98965.19;;;18.46;100.00
3434;BME280;1730;41.932;25.548;2023-07-30T02:42:43;98962.03;;;18.43;100.00
3434;BME280;1730;41.932;25.548;2023-07-30T02:45:09;98955.75;;;18.36;100.00
3434;BME280;1730;41.932;25.548;2023-07-30T02:47:35;98959.72;;;18.40;100.00
3434;BME280;1730;41.932;25.548;2023-07-30T02:50:02;98970.66;;;18.40;100.00
3434;BME280;1730;41.932;25.548;2023-07-30T02:52:27;98964.37;;;18.33;100.00
3434;BME280;1730;41.932;25.548;2023-07-30T02:54:53;98968.75;;;18.47;100.00
3434;BME280;1730;41.932;25.548;2023-07-30T02:57:18;98954.47;;;18.52;100.00
3434;BME280;1730;41.932;25.548;2023-07-30T02:59:43;98968.78;;;18.34;100.00
3434;BME280;1730;41.932;25.548;2023-07-30T03:02:09;98967.28;;;18.44;100.00
3434;BME280;1730;41.932;25.548;2023-07-30T03:04:34;98962.88;;;18.30;100.00
3434;BME280;1730;41.932;25.548;2023-07-30T03:07:01;98962.69;;;18.32;100.00
3434;BME280;1730;41.932;25.548;2023-07-30T03:09:27;98962.25;;;18.41;100.00
3434;BME280;1730;41.932;25.548;2023-07-30T03:11:53;98960.12;;;18.43;100.00
3434;BME280;1730;41.932;25.548;2023-07-30T03:14:19;98961.62;;;18.59;100.00
3434;BME280;1730;41.932;25.548;2023-07-30T03:16:49;98954.69;;;18.43;100.00
3434;BME280;1730;41.932;25.548;2023-07-30T03:19:15;98955.91;;;18.47;100.00
3434;BME280;1730;41.932;25.548;2023-07-30T03:21:41;98968.59;;;18.29;100.00
3434;BME280;1730;41.932;25.548;2023-07-30T03:24:06;98981.63;;;18.20;100.00
3434;BME280;1730;41.932;25.548;2023-07-30T03:26:32;98983.91;;;18.23;100.00
3434;BME280;1730;41.932;25.548;2023-07-30T03:28:57;98984.53;;;18.32;100.00
3434;BME280;1730;41.932;25.548;2023-07-30T03:31:23;98993.97;;;18.36;100.00
3434;BME280;1730;41.932;25.548;2023-07-30T03:33:48;98926.56;;;18.30;100.00
3434;BME280;1730;41.932;25.548;2023-07-30T03:36:14;98969.56;;;18.47;100.00
3434;BME280;1730;41.932;25.548;2023-07-30T03:38:40;98976.50;;;18.43;100.00
3434;BME280;1730;41.932;25.548;2023-07-30T03:41:06;98974.63;;;18.51;100.00
3434;BME280;1730;41.932;25.548;2023-07-30T03:43:32;98973.19;;;18.55;100.00
3434;BME280;1730;41.932;25.548;2023-07-30T03:45:58;98973.34;;;18.66;100.00
3434;BME280;1730;41.932;25.548;2023-07-30T03:48:23;98944.09;;;18.80;100.00
3434;BME280;1730;41.932;25.548;2023-07-30T03:50:49;98943.69;;;19.21;100.00
3434;BME280;1730;41.932;25.548;2023-07-30T03:53:14;98935.34;;;19.78;100.00
3434;BME280;1730;41.932;25.548;2023-07-30T03:55:40;98930.75;;;19.72;100.00
3434;BME280;1730;41.932;25.548;2023-07-30T03:58:06;98919.84;;;20.40;100.00
3434;BME280;1730;41.932;25.548;2023-07-30T04:00:31;98917.59;;;20.67;100.00
3434;BME280;1730;41.932;25.548;2023-07-30T04:02:57;98912.59;;;20.82;100.00
3434;BME280;1730;41.932;25.548;2023-07-30T04:05:23;98819.56;;;20.69;100.00
3434;BME280;1730;41.932;25.548;2023-07-30T04:07:48;98859.78;;;20.75;100.00
3434;BME280;1730;41.932;25.548;2023-07-30T04:10:14;98909.00;;;21.30;100.00
3434;BME280;1730;41.932;25.548;2023-07-30T04:12:40;98903.72;;;21.17;100.00
3434;BME280;1730;41.932;25.548;2023-07-30T04:15:06;98895.94;;;21.55;100.00
3434;BME280;1730;41.932;25.548;2023-07-30T04:17:31;98900.00;;;22.29;100.00
3434;BME280;1730;41.932;25.548;2023-07-30T04:19:56;98866.31;;;22.10;100.00
3434;BME280;1730;41.932;25.548;2023-07-30T04:22:22;98863.84;;;22.60;100.00
3434;BME280;1730;41.932;25.548;2023-07-30T04:24:48;98889.28;;;23.35;100.00
3434;BME280;1730;41.932;25.548;2023-07-30T04:27:13;98883.16;;;23.17;100.00
3434;BME280;1730;41.932;25.548;2023-07-30T04:29:39;98881.37;;;23.39;100.00
3434;BME280;1730;41.932;25.548;2023-07-30T04:32:04;98866.44;;;23.35;100.00
3434;BME280;1730;41.932;25.548;2023-07-30T04:34:31;98888.31;;;23.42;100.00
3434;BME280;1730;41.932;25.548;2023-07-30T04:36:57;98885.19;;;23.50;100.00
3434;BME280;1730;41.932;25.548;2023-07-30T04:39:22;98890.56;;;23.90;100.00
3434;BME280;1730;41.932;25.548;2023-07-30T04:41:48;98893.97;;;24.30;100.00
3434;BME280;1730;41.932;25.548;2023-07-30T04:44:13;98890.06;;;24.26;100.00
3434;BME280;1730;41.932;25.548;2023-07-30T04:46:39;98917.31;;;24.44;100.00
3434;BME280;1730;41.932;25.548;2023-07-30T04:49:04;98898.97;;;24.93;100.00
3434;BME280;1730;41.932;25.548;2023-07-30T04:51:30;98850.50;;;25.02;100.00
3434;BME280;1730;41.932;25.548;2023-07-30T04:53:55;98880.09;;;25.07;100.00
3434;BME280;1730;41.932;25.548;2023-07-30T04:56:21;98909.97;;;25.64;100.00
3434;BME280;1730;41.932;25.548;2023-07-30T04:58:46;98852.28;;;25.67;100.00
3434;BME280;1730;41.932;25.548;2023-07-30T05:01:12;98896.19;;;25.95;100.00
3434;BME280;1730;41.932;25.548;2023-07-30T05:03:37;98897.69;;;26.55;100.00
3434;BME280;1730;41.932;25.548;2023-07-30T05:06:03;98893.16;;;26.34;100.00
3434;BME280;1730;41.932;25.548;2023-07-30T05:08:28;98897.16;;;27.05;100.00
3434;BME280;1730;41.932;25.548;2023-07-30T05:10:54;98895.31;;;26.74;100.00
3434;BME280;1730;41.932;25.548;2023-07-30T05:13:19;98904.22;;;27.48;100.00
3434;BME280;1730;41.932;25.548;2023-07-30T05:15:46;98898.16;;;27.66;100.00
3434;BME280;1730;41.932;25.548;2023-07-30T05:18:12;98827.16;;;27.45;100.00
3434;BME280;1730;41.932;25.548;2023-07-30T05:20:38;98907.00;;;27.73;100.00
3434;BME280;1730;41.932;25.548;2023-07-30T05:23:04;98901.75;;;27.67;100.00
3434;BME280;1730;41.932;25.548;2023-07-30T05:25:29;98892.88;;;28.05;100.00
3434;BME280;1730;41.932;25.548;2023-07-30T05:27:55;98877.31;;;28.50;100.00
3434;BME280;1730;41.932;25.548;2023-07-30T05:30:20;98900.62;;;28.49;100.00
3434;BME280;1730;41.932;25.548;2023-07-30T05:32:46;98893.63;;;28.82;98.65
3434;BME280;1730;41.932;25.548;2023-07-30T05:35:11;98898.31;;;28.91;99.47
3434;BME280;1730;41.932;25.548;2023-07-30T05:37:37;98877.88;;;29.21;93.90
3434;BME280;1730;41.932;25.548;2023-07-30T05:40:03;98882.84;;;30.07;86.15
3434;BME280;1730;41.932;25.548;2023-07-30T05:42:28;98906.97;;;29.44;92.60
3434;BME280;1730;41.932;25.548;2023-07-30T05:44:54;98851.44;;;29.34;94.50
3434;BME280;1730;41.932;25.548;2023-07-30T05:47:19;98896.91;;;29.53;93.64
3434;BME280;1730;41.932;25.548;2023-07-30T05:49:44;98895.28;;;29.81;89.47
3434;BME280;1730;41.932;25.548;2023-07-30T05:52:10;98905.13;;;30.07;92.07
3434;BME280;1730;41.932;25.548;2023-07-30T05:54:35;98911.44;;;30.47;86.45
3434;BME280;1730;41.932;25.548;2023-07-30T05:57:02;98904.53;;;30.39;85.09
3434;BME280;1730;41.932;25.548;2023-07-30T05:59:28;98834.56;;;30.74;79.68
3434;BME280;1730;41.932;25.548;2023-07-30T06:01:55;98888.34;;;30.94;82.46
3434;BME280;1730;41.932;25.548;2023-07-30T06:04:22;98886.13;;;31.94;72.51
3434;BME280;1730;41.932;25.548;2023-07-30T06:06:47;98911.87;;;32.24;73.97
3434;BME280;1730;41.932;25.548;2023-07-30T06:09:13;98903.66;;;31.95;72.35
3434;BME280;1730;41.932;25.548;2023-07-30T06:11:38;98899.22;;;32.12;74.09
3434;BME280;1730;41.932;25.548;2023-07-30T06:14:04;98903.13;;;33.17;65.23
3434;BME280;1730;41.932;25.548;2023-07-30T06:16:29;98905.34;;;32.88;65.13
3434;BME280;1730;41.932;25.548;2023-07-30T06:18:54;98905.53;;;31.99;70.52
3434;BME280;1730;41.932;25.548;2023-07-30T06:21:20;98906.81;;;33.13;64.16
3434;BME280;1730;41.932;25.548;2023-07-30T06:23:46;98822.91;;;31.71;65.77
3434;BME280;1730;41.932;25.548;2023-07-30T06:26:11;98897.81;;;32.29;68.00
3434;BME280;1730;41.932;25.548;2023-07-30T06:28:37;98892.97;;;32.48;67.05
3434;BME280;1730;41.932;25.548;2023-07-30T06:31:03;98888.84;;;31.62;72.84
3434;BME280;1730;41.932;25.548;2023-07-30T06:33:30;98888.94;;;31.75;71.05
3434;BME280;1730;41.932;25.548;2023-07-30T06:35:56;98833.75;;;31.54;70.93
3434;BME280;1730;41.932;25.548;2023-07-30T06:38:23;98874.81;;;31.29;71.20
3434;BME280;1730;41.932;25.548;2023-07-30T06:40:50;98888.37;;;32.71;67.52
3434;BME280;1730;41.932;25.548;2023-07-30T06:43:16;98886.81;;;33.05;64.76
3434;BME280;1730;41.932;25.548;2023-07-30T06:45:41;98884.09;;;33.41;61.07
3434;BME280;1730;41.932;25.548;2023-07-30T06:48:06;98881.78;;;32.80;64.40
3434;BME280;1730;41.932;25.548;2023-07-30T06:50:32;98878.09;;;32.52;64.23
3434;BME280;1730;41.932;25.548;2023-07-30T06:52:59;98870.59;;;32.94;63.24
3434;BME280;1730;41.932;25.548;2023-07-30T06:55:25;98740.94;;;32.81;58.47
3434;BME280;1730;41.932;25.548;2023-07-30T06:57:50;98867.28;;;33.55;59.40
3434;BME280;1730;41.932;25.548;2023-07-30T07:00:15;98865.87;;;34.02;58.65
3434;BME280;1730;41.932;25.548;2023-07-30T07:02:50;98874.84;;;33.68;57.03
3434;BME280;1730;41.932;25.548;2023-07-30T07:05:15;98868.62;;;33.22;55.48
3434;BME280;1730;41.932;25.548;2023-07-30T07:07:41;98869.09;;;33.37;54.24
3434;BME280;1730;41.932;25.548;2023-07-30T07:10:07;98864.66;;;33.09;56.53
3434;BME280;1730;41.932;25.548;2023-07-30T07:12:32;98871.28;;;32.45;57.55
3434;BME280;1730;41.932;25.548;2023-07-30T07:14:58;98859.88;;;32.28;60.71
3434;BME280;1730;41.932;25.548;2023-07-30T07:17:26;98869.88;;;31.96;64.48
3434;BME280;1730;41.932;25.548;2023-07-30T07:19:52;98868.28;;;32.41;61.64
3434;BME280;1730;41.932;25.548;2023-07-30T07:22:17;98878.97;;;32.67;60.61
3434;BME280;1730;41.932;25.548;2023-07-30T07:24:44;98875.41;;;32.61;60.50
3434;BME280;1730;41.932;25.548;2023-07-30T07:27:09;98869.44;;;33.08;60.45
3434;BME280;1730;41.932;25.548;2023-07-30T07:29:35;98870.12;;;32.46;61.08
3434;BME280;1730;41.932;25.548;2023-07-30T07:32:00;98861.91;;;31.52;64.87
3434;BME280;1730;41.932;25.548;2023-07-30T07:34:26;98863.69;;;31.99;67.08
3434;BME280;1730;41.932;25.548;2023-07-30T07:36:51;98855.25;;;32.50;62.79
3434;BME280;1730;41.932;25.548;2023-07-30T07:39:17;98856.75;;;31.46;71.80
3434;BME280;1730;41.932;25.548;2023-07-30T07:41:44;98846.31;;;31.51;74.40
3434;BME280;1730;41.932;25.548;2023-07-30T07:44:09;98839.50;;;31.62;74.30
3434;BME280;1730;41.932;25.548;2023-07-30T07:46:35;98845.44;;;31.56;72.03
3434;BME280;1730;41.932;25.548;2023-07-30T07:49:00;98790.66;;;31.09;71.14
3434;BME280;1730;41.932;25.548;2023-07-30T07:51:26;98825.44;;;30.93;72.40
3434;BME280;1730;41.932;25.548;2023-07-30T07:53:51;98836.31;;;31.31;74.00
3434;BME280;1730;41.932;25.548;2023-07-30T07:56:17;98822.00;;;31.57;73.12
3434;BME280;1730;41.932;25.548;2023-07-30T07:58:44;98809.28;;;31.13;72.71
3434;BME280;1730;41.932;25.548;2023-07-30T08:01:10;98827.87;;;30.75;75.18
3434;BME280;1730;41.932;25.548;2023-07-30T08:03:35;98829.34;;;30.68;76.66
3434;BME280;1730;41.932;25.548;2023-07-30T08:06:01;98829.31;;;30.49;76.59
3434;BME280;1730;41.932;25.548;2023-07-30T08:08:26;98830.75;;;30.41;78.20
3434;BME280;1730;41.932;25.548;2023-07-30T08:10:53;98834.41;;;30.37;78.95
3434;BME280;1730;41.932;25.548;2023-07-30T08:13:19;98828.28;;;30.11;77.59
3434;BME280;1730;41.932;25.548;2023-07-30T08:15:45;98829.81;;;30.27;77.79
3434;BME280;1730;41.932;25.548;2023-07-30T08:18:10;98825.59;;;30.30;79.30
3434;BME280;1730;41.932;25.548;2023-07-30T08:20:36;98828.25;;;30.16;78.14
3434;BME280;1730;41.932;25.548;2023-07-30T08:23:02;98831.50;;;30.52;75.48
3434;BME280;1730;41.932;25.548;2023-07-30T08:25:27;98785.69;;;29.87;78.82
3434;BME280;1730;41.932;25.548;2023-07-30T08:27:53;98795.56;;;30.03;77.85
3434;BME280;1730;41.932;25.548;2023-07-30T08:30:18;98823.31;;;30.61;74.40
3434;BME280;1730;41.932;25.548;2023-07-30T08:32:44;98781.78;;;30.40;71.51
3434;BME280;1730;41.932;25.548;2023-07-30T08:35:10;98814.50;;;30.96;68.48
3434;BME280;1730;41.932;25.548;2023-07-30T08:37:36;98808.66;;;30.98;70.29
3434;BME280;1730;41.932;25.548;2023-07-30T08:40:02;98818.25;;;31.10;70.33
3434;BME280;1730;41.932;25.548;2023-07-30T08:42:28;98806.13;;;31.01;70.82
3434;BME280;1730;41.932;25.548;2023-07-30T08:44:54;98807.06;;;30.92;69.09
3434;BME280;1730;41.932;25.548;2023-07-30T08:47:19;98764.72;;;30.89;71.75
3434;BME280;1730;41.932;25.548;2023-07-30T08:49:44;98796.97;;;30.96;66.99
3434;BME280;1730;41.932;25.548;2023-07-30T08:52:10;98806.38;;;31.00;67.48
3434;BME280;1730;41.932;25.548;2023-07-30T08:54:37;98801.66;;;31.38;67.38
3434;BME280;1730;41.932;25.548;2023-07-30T08:57:03;98799.00;;;31.65;65.98
3434;BME280;1730;41.932;25.548;2023-07-30T08:59:50;98793.97;;;31.48;62.46
3434;BME280;1730;41.932;25.548;2023-07-30T09:02:26;98798.13;;;31.83;65.52
3434;BME280;1730;41.932;25.548;2023-07-30T09:04:58;98795.38;;;31.97;62.97
3434;BME280;1730;41.932;25.548;2023-07-30T09:07:25;98788.94;;;32.15;59.12
3434;BME280;1730;41.932;25.548;2023-07-30T09:09:52;98788.59;;;32.03;59.47
3434;BME280;1730;41.932;25.548;2023-07-30T09:12:18;98789.63;;;32.07;61.39
3434;BME280;1730;41.932;25.548;2023-07-30T09:14:43;98770.41;;;31.41;62.61
3434;BME280;1730;41.932;25.548;2023-07-30T09:17:18;98770.81;;;31.99;61.93
3434;BME280;1730;41.932;25.548;2023-07-30T09:19:43;98746.16;;;31.73;62.53
3434;BME280;1730;41.932;25.548;2023-07-30T09:22:10;98736.69;;;32.02;61.33
3434;BME280;1730;41.932;25.548;2023-07-30T09:24:35;98768.50;;;32.33;62.04
3434;BME280;1730;41.932;25.548;2023-07-30T09:27:02;98770.91;;;32.07;61.73
3434;BME280;1730;41.932;25.548;2023-07-30T09:29:28;98769.25;;;32.06;62.42
3434;BME280;1730;41.932;25.548;2023-07-30T09:31:54;98764.88;;;31.87;61.86
3434;BME280;1730;41.932;25.548;2023-07-30T09:34:23;98749.41;;;32.08;59.58
3434;BME280;1730;41.932;25.548;2023-07-30T09:36:54;98743.03;;;32.35;60.32
3434;BME280;1730;41.932;25.548;2023-07-30T09:39:21;98739.81;;;32.55;59.47
3434;BME280;1730;41.932;25.548;2023-07-30T09:41:48;98740.25;;;32.35;57.42
3434;BME280;1730;41.932;25.548;2023-07-30T09:44:16;98734.06;;;32.24;57.79
3434;BME280;1730;41.932;25.548;2023-07-30T09:46:44;98736.84;;;32.38;56.89
3434;BME280;1730;41.932;25.548;2023-07-30T09:49:10;98730.19;;;32.61;55.54
3434;BME280;1730;41.932;25.548;2023-07-30T09:51:39;98728.25;;;32.34;54.97
3434;BME280;1730;41.932;25.548;2023-07-30T09:54:10;98682.19;;;32.73;53.70
3434;BME280;1730;41.932;25.548;2023-07-30T09:56:37;98717.41;;;32.46;52.23
3434;BME280;1730;41.932;25.548;2023-07-30T09:59:07;98709.34;;;32.94;52.66
3434;BME280;1730;41.932;25.548;2023-07-30T10:01:44;98703.66;;;32.99;51.13
3434;BME280;1730;41.932;25.548;2023-07-30T10:04:11;98700.56;;;33.23;51.00
3434;BME280;1730;41.932;25.548;2023-07-30T10:06:48;98698.00;;;33.58;49.30
3434;BME280;1730;41.932;25.548;2023-07-30T10:09:17;98667.72;;;33.29;47.18
3434;BME280;1730;41.932;25.548;2023-07-30T10:11:46;98672.34;;;32.61;48.31
3434;BME280;1730;41.932;25.548;2023-07-30T10:14:14;98689.84;;;33.17;47.05
3434;BME280;1730;41.932;25.548;2023-07-30T10:16:55;98681.72;;;33.60;46.06
3434;BME280;1730;41.932;25.548;2023-07-30T10:19:26;98648.12;;;33.06;46.72
3434;BME280;1730;41.932;25.548;2023-07-30T10:21:57;98671.94;;;33.26;47.15
3434;BME280;1730;41.932;25.548;2023-07-30T10:24:25;98670.94;;;33.44;47.99
3434;BME280;1730;41.932;25.548;2023-07-30T10:26:53;98680.66;;;33.69;46.59
3434;BME280;1730;41.932;25.548;2023-07-30T10:29:22;98673.56;;;32.83;45.85
3434;BME280;1730;41.932;25.548;2023-07-30T10:31:55;98661.09;;;33.02;46.67
3434;BME280;1730;41.932;25.548;2023-07-30T10:34:22;98660.56;;;33.45;47.51
3434;BME280;1730;41.932;25.548;2023-07-30T10:36:51;98643.03;;;33.92;44.57
3434;BME280;1730;41.932;25.548;2023-07-30T10:39:20;98656.47;;;33.73;45.32
3434;BME280;1730;41.932;25.548;2023-07-30T10:41:51;98656.25;;;33.92;45.47
3434;BME280;1730;41.932;25.548;2023-07-30T10:44:28;98657.50;;;33.77;43.68
3434;BME280;1730;41.932;25.548;2023-07-30T10:46:56;98649.25;;;33.50;43.96
3434;BME280;1730;41.932;25.548;2023-07-30T10:49:22;98650.66;;;33.92;44.95
3434;BME280;1730;41.932;25.548;2023-07-30T10:51:49;98613.47;;;34.09;43.83
3434;BME280;1730;41.932;25.548;2023-07-30T10:54:15;98625.56;;;34.18;42.92
3434;BME280;1730;41.932;25.548;2023-07-30T10:56:41;98655.38;;;34.22;42.07
3434;BME280;1730;41.932;25.548;2023-07-30T10:59:08;98650.13;;;34.29;41.86
3434;BME280;1730;41.932;25.548;2023-07-30T11:01:42;98601.94;;;34.10;42.06
3434;BME280;1730;41.932;25.548;2023-07-30T11:04:20;98645.16;;;34.18;41.77
3434;BME280;1730;41.932;25.548;2023-07-30T11:06:51;98631.38;;;34.47;41.31
3434;BME280;1730;41.932;25.548;2023-07-30T11:09:23;98621.31;;;34.46;41.54
3434;BME280;1730;41.932;25.548;2023-07-30T11:11:50;98634.16;;;34.47;42.19
3434;BME280;1730;41.932;25.548;2023-07-30T11:14:21;98627.66;;;34.12;42.28
3434;BME280;1730;41.932;25.548;2023-07-30T11:17:06;98590.56;;;34.07;43.42
3434;BME280;1730;41.932;25.548;2023-07-30T11:19:32;98619.50;;;34.59;42.46
3434;BME280;1730;41.932;25.548;2023-07-30T11:21:59;98619.00;;;34.48;40.91
3434;BME280;1730;41.932;25.548;2023-07-30T11:24:35;98620.94;;;34.22;42.55
3434;BME280;1730;41.932;25.548;2023-07-30T11:27:01;98613.69;;;34.21;42.32
3434;BME280;1730;41.932;25.548;2023-07-30T11:29:27;98613.97;;;34.11;42.76
3434;BME280;1730;41.932;25.548;2023-07-30T11:31:57;98618.91;;;34.05;41.95
3434;BME280;1730;41.932;25.548;2023-07-30T11:34:24;98569.66;;;34.04;41.73
3434;BME280;1730;41.932;25.548;2023-07-30T11:36:51;98585.78;;;33.99;41.36
3434;BME280;1730;41.932;25.548;2023-07-30T11:39:19;98614.28;;;34.74;40.52
3434;BME280;1730;41.932;25.548;2023-07-30T11:41:45;98614.09;;;35.05;40.01
3434;BME280;1730;41.932;25.548;2023-07-30T11:44:33;98603.69;;;34.54;40.77
3434;BME280;1730;41.932;25.548;2023-07-30T11:46:59;98597.97;;;34.03;41.70
3434;BME280;1730;41.932;25.548;2023-07-30T11:49:26;98599.88;;;34.33;41.54
3434;BME280;1730;41.932;25.548;2023-07-30T11:52:04;98550.56;;;34.15;40.89
3434;BME280;1730;41.932;25.548;2023-07-30T11:54:29;98582.41;;;35.13;40.00
3434;BME280;1730;41.932;25.548;2023-07-30T11:56:57;98503.19;;;34.70;39.91
3434;BME280;1730;41.932;25.548;2023-07-30T11:59:22;98580.84;;;35.42;39.05
3434;BME280;1730;41.932;25.548;2023-07-30T12:01:48;98577.25;;;35.41;38.96
3434;BME280;1730;41.932;25.548;2023-07-30T12:04:14;98527.72;;;34.56;39.57
3434;BME280;1730;41.932;25.548;2023-07-30T12:06:47;98568.44;;;34.79;39.32
3434;BME280;1730;41.932;25.548;2023-07-30T12:09:21;98541.56;;;34.61;39.26
3434;BME280;1730;41.932;25.548;2023-07-30T12:14:16;98565.97;;;34.86;39.32
3434;BME280;1730;41.932;25.548;2023-07-30T12:16:42;98557.41;;;34.74;38.63
3434;BME280;1730;41.932;25.548;2023-07-30T12:19:08;98550.28;;;34.51;38.82
3434;BME280;1730;41.932;25.548;2023-07-30T12:21:33;98513.06;;;34.50;38.04
3434;BME280;1730;41.932;25.548;2023-07-30T12:23:59;98541.06;;;34.76;38.54
3434;BME280;1730;41.932;25.548;2023-07-30T12:26:24;98497.75;;;34.39;38.19
3434;BME280;1730;41.932;25.548;2023-07-30T12:28:50;98545.19;;;34.78;38.42
3434;BME280;1730;41.932;25.548;2023-07-30T12:31:15;98525.75;;;34.39;37.59
3434;BME280;1730;41.932;25.548;2023-07-30T12:33:42;98535.91;;;35.04;37.53
3434;BME280;1730;41.932;25.548;2023-07-30T12:36:07;98534.81;;;34.62;37.96
3434;BME280;1730;41.932;25.548;2023-07-30T12:38:33;98529.47;;;35.03;37.52
3434;BME280;1730;41.932;25.548;2023-07-30T12:40:59;98496.09;;;34.29;37.91
3434;BME280;1730;41.932;25.548;2023-07-30T12:43:25;98524.09;;;34.72;38.09
3434;BME280;1730;41.932;25.548;2023-07-30T12:45:50;98518.91;;;35.17;38.38
3434;BME280;1730;41.932;25.548;2023-07-30T12:48:16;98514.22;;;35.39;38.25
3434;BME280;1730;41.932;25.548;2023-07-30T12:50:42;98483.34;;;34.92;37.81
3434;BME280;1730;41.932;25.548;2023-07-30T12:53:08;98513.31;;;35.17;37.98
3434;BME280;1730;41.932;25.548;2023-07-30T12:55:33;98501.28;;;35.46;37.71
3434;BME280;1730;41.932;25.548;2023-07-30T12:57:59;98498.38;;;35.72;37.27
3434;BME280;1730;41.932;25.548;2023-07-30T13:00:25;98507.50;;;35.90;37.18
3434;BME280;1730;41.932;25.548;2023-07-30T13:02:50;98496.19;;;35.78;37.46
3434;BME280;1730;41.932;25.548;2023-07-30T13:05:20;98493.34;;;35.19;37.07
3434;BME280;1730;41.932;25.548;2023-07-30T13:07:46;98494.34;;;35.52;37.78
3434;BME280;1730;41.932;25.548;2023-07-30T13:10:12;98486.28;;;35.80;37.25